<?xml version="1.0" encoding="UTF-8" standalone="no" ?>
<gpx xmlns="http://www.topografix.com/GPX/1/1" xmlns:xsi="http://www.w3.org/2001/XMLSchema-instance" xsi:schemaLocation="http://www.topografix.com/GPX/1/1 http://www.topografix.com/GPX/1/1/gpx.xsd" version="1.1" creator="VisuGPX - https://www.visugpx.com">
  <metadata>
    <name>CIRCUIT 2014</name>
    <desc><![CDATA[Circuit type xc.]]></desc>
  </metadata>
  <trk>
    <name><![CDATA[26-JUIL-14 16:56:15]]></name>
    <trkseg>
      <trkpt lat="47.89046" lon="1.91846">
        <ele>124.15</ele>
        <time>2014-07-20T19:34:09Z</time>
      </trkpt>
      <trkpt lat="47.89021" lon="1.91866">
        <ele>124.15</ele>
        <time>2014-07-20T19:34:46Z</time>
      </trkpt>
      <trkpt lat="47.93348" lon="1.99271">
        <ele>43.4</ele>
        <time>2014-07-26T14:05:34Z</time>
      </trkpt>
      <trkpt lat="47.93329" lon="1.99441">
        <ele>131.36</ele>
        <time>2014-07-26T14:09:51Z</time>
      </trkpt>
      <trkpt lat="47.93219" lon="1.9947">
        <ele>135.68</ele>
        <time>2014-07-26T14:10:34Z</time>
      </trkpt>
      <trkpt lat="47.93269" lon="1.99692">
        <ele>147.7</ele>
        <time>2014-07-26T14:11:25Z</time>
      </trkpt>
      <trkpt lat="47.93361" lon="1.99878">
        <ele>174.62</ele>
        <time>2014-07-26T14:12:07Z</time>
      </trkpt>
      <trkpt lat="47.93355" lon="1.99992">
        <ele>210.19</ele>
        <time>2014-07-26T14:13:01Z</time>
      </trkpt>
      <trkpt lat="47.93284" lon="2.00042">
        <ele>250.56</ele>
        <time>2014-07-26T14:14:21Z</time>
      </trkpt>
      <trkpt lat="47.93218" lon="1.99915">
        <ele>253.93</ele>
        <time>2014-07-26T14:14:49Z</time>
      </trkpt>
      <trkpt lat="47.93166" lon="1.99858">
        <ele>253.93</ele>
        <time>2014-07-26T14:15:16Z</time>
      </trkpt>
      <trkpt lat="47.93099" lon="1.99925">
        <ele>239.99</ele>
        <time>2014-07-26T14:15:35Z</time>
      </trkpt>
      <trkpt lat="47.93023" lon="1.99992">
        <ele>227.01</ele>
        <time>2014-07-26T14:15:55Z</time>
      </trkpt>
      <trkpt lat="47.93045" lon="2.00012">
        <ele>214.03</ele>
        <time>2014-07-26T14:16:21Z</time>
      </trkpt>
      <trkpt lat="47.93138" lon="1.99983">
        <ele>217.4</ele>
        <time>2014-07-26T14:16:42Z</time>
      </trkpt>
      <trkpt lat="47.93217" lon="2.00113">
        <ele>219.32</ele>
        <time>2014-07-26T14:17:03Z</time>
      </trkpt>
      <trkpt lat="47.93309" lon="2.00137">
        <ele>221.24</ele>
        <time>2014-07-26T14:17:18Z</time>
      </trkpt>
      <trkpt lat="47.93396" lon="2.00072">
        <ele>222.68</ele>
        <time>2014-07-26T14:17:35Z</time>
      </trkpt>
      <trkpt lat="47.93477" lon="1.99989">
        <ele>222.68</ele>
        <time>2014-07-26T14:17:54Z</time>
      </trkpt>
      <trkpt lat="47.93556" lon="1.99899">
        <ele>223.16</ele>
        <time>2014-07-26T14:18:14Z</time>
      </trkpt>
      <trkpt lat="47.93542" lon="1.99778">
        <ele>210.67</ele>
        <time>2014-07-26T14:18:36Z</time>
      </trkpt>
      <trkpt lat="47.93613" lon="1.99711">
        <ele>225.09</ele>
        <time>2014-07-26T14:19:03Z</time>
      </trkpt>
      <trkpt lat="47.93747" lon="1.99616">
        <ele>174.62</ele>
        <time>2014-07-26T14:21:54Z</time>
      </trkpt>
      <trkpt lat="47.93864" lon="1.9958">
        <ele>180.38</ele>
        <time>2014-07-26T14:22:37Z</time>
      </trkpt>
      <trkpt lat="47.93961" lon="1.9955">
        <ele>190.48</ele>
        <time>2014-07-26T14:22:55Z</time>
      </trkpt>
      <trkpt lat="47.93997" lon="1.99755">
        <ele>189.52</ele>
        <time>2014-07-26T14:23:19Z</time>
      </trkpt>
      <trkpt lat="47.93983" lon="1.99931">
        <ele>181.83</ele>
        <time>2014-07-26T14:23:47Z</time>
      </trkpt>
      <trkpt lat="47.94051" lon="2.00136">
        <ele>177.5</ele>
        <time>2014-07-26T14:24:16Z</time>
      </trkpt>
      <trkpt lat="47.93986" lon="2.00297">
        <ele>182.79</ele>
        <time>2014-07-26T14:24:37Z</time>
      </trkpt>
      <trkpt lat="47.93931" lon="2.0043">
        <ele>181.83</ele>
        <time>2014-07-26T14:25:01Z</time>
      </trkpt>
      <trkpt lat="47.93942" lon="2.00627">
        <ele>178.46</ele>
        <time>2014-07-26T14:25:24Z</time>
      </trkpt>
      <trkpt lat="47.9399" lon="2.00738">
        <ele>176.06</ele>
        <time>2014-07-26T14:26:10Z</time>
      </trkpt>
      <trkpt lat="47.941" lon="2.00808">
        <ele>184.23</ele>
        <time>2014-07-26T14:26:52Z</time>
      </trkpt>
      <trkpt lat="47.94197" lon="2.00702">
        <ele>190.96</ele>
        <time>2014-07-26T14:27:19Z</time>
      </trkpt>
      <trkpt lat="47.94266" lon="2.00616">
        <ele>189.52</ele>
        <time>2014-07-26T14:27:37Z</time>
      </trkpt>
      <trkpt lat="47.94296" lon="2.00499">
        <ele>182.79</ele>
        <time>2014-07-26T14:27:55Z</time>
      </trkpt>
      <trkpt lat="47.94322" lon="2.00361">
        <ele>178.94</ele>
        <time>2014-07-26T14:28:12Z</time>
      </trkpt>
      <trkpt lat="47.94316" lon="2.00185">
        <ele>173.17</ele>
        <time>2014-07-26T14:28:48Z</time>
      </trkpt>
      <trkpt lat="47.94262" lon="2.00032">
        <ele>164.52</ele>
        <time>2014-07-26T14:29:19Z</time>
      </trkpt>
      <trkpt lat="47.9424" lon="1.9982">
        <ele>155.39</ele>
        <time>2014-07-26T14:29:59Z</time>
      </trkpt>
      <trkpt lat="47.94216" lon="1.99633">
        <ele>152.99</ele>
        <time>2014-07-26T14:30:23Z</time>
      </trkpt>
      <trkpt lat="47.94212" lon="1.9944">
        <ele>149.14</ele>
        <time>2014-07-26T14:31:00Z</time>
      </trkpt>
      <trkpt lat="47.94077" lon="1.99229">
        <ele>165.48</ele>
        <time>2014-07-26T14:32:04Z</time>
      </trkpt>
      <trkpt lat="47.9401" lon="1.99064">
        <ele>191.44</ele>
        <time>2014-07-26T14:32:45Z</time>
      </trkpt>
      <trkpt lat="47.93926" lon="1.9886">
        <ele>172.21</ele>
        <time>2014-07-26T14:34:47Z</time>
      </trkpt>
      <trkpt lat="47.93995" lon="1.98711">
        <ele>132.8</ele>
        <time>2014-07-26T14:35:46Z</time>
      </trkpt>
      <trkpt lat="47.9395" lon="1.98603">
        <ele>119.82</ele>
        <time>2014-07-26T14:36:39Z</time>
      </trkpt>
      <trkpt lat="47.94024" lon="1.98481">
        <ele>120.3</ele>
        <time>2014-07-26T14:37:01Z</time>
      </trkpt>
      <trkpt lat="47.94105" lon="1.98458">
        <ele>124.63</ele>
        <time>2014-07-26T14:37:24Z</time>
      </trkpt>
      <trkpt lat="47.9414" lon="1.98443">
        <ele>133.28</ele>
        <time>2014-07-26T14:38:05Z</time>
      </trkpt>
      <trkpt lat="47.94196" lon="1.98295">
        <ele>130.88</ele>
        <time>2014-07-26T14:39:17Z</time>
      </trkpt>
      <trkpt lat="47.94121" lon="1.9825">
        <ele>137.13</ele>
        <time>2014-07-26T14:39:59Z</time>
      </trkpt>
      <trkpt lat="47.93999" lon="1.98257">
        <ele>138.09</ele>
        <time>2014-07-26T14:40:25Z</time>
      </trkpt>
      <trkpt lat="47.93963" lon="1.98229">
        <ele>140.01</ele>
        <time>2014-07-26T14:40:58Z</time>
      </trkpt>
      <trkpt lat="47.93998" lon="1.98398">
        <ele>144.34</ele>
        <time>2014-07-26T14:41:34Z</time>
      </trkpt>
      <trkpt lat="47.93922" lon="1.98554">
        <ele>142.89</ele>
        <time>2014-07-26T14:42:00Z</time>
      </trkpt>
      <trkpt lat="47.9374" lon="1.98423">
        <ele>178.94</ele>
        <time>2014-07-26T14:42:41Z</time>
      </trkpt>
      <trkpt lat="47.93661" lon="1.98354">
        <ele>178.46</ele>
        <time>2014-07-26T14:43:09Z</time>
      </trkpt>
      <trkpt lat="47.93548" lon="1.98369">
        <ele>163.56</ele>
        <time>2014-07-26T14:43:55Z</time>
      </trkpt>
      <trkpt lat="47.93458" lon="1.98318">
        <ele>152.03</ele>
        <time>2014-07-26T14:44:18Z</time>
      </trkpt>
      <trkpt lat="47.93471" lon="1.98463">
        <ele>152.51</ele>
        <time>2014-07-26T14:44:36Z</time>
      </trkpt>
      <trkpt lat="47.93518" lon="1.98519">
        <ele>152.51</ele>
        <time>2014-07-26T14:45:17Z</time>
      </trkpt>
      <trkpt lat="47.93617" lon="1.9847">
        <ele>155.39</ele>
        <time>2014-07-26T14:45:40Z</time>
      </trkpt>
      <trkpt lat="47.937" lon="1.98582">
        <ele>160.68</ele>
        <time>2014-07-26T14:45:59Z</time>
      </trkpt>
      <trkpt lat="47.93756" lon="1.98697">
        <ele>162.12</ele>
        <time>2014-07-26T14:46:15Z</time>
      </trkpt>
      <trkpt lat="47.93823" lon="1.98814">
        <ele>162.12</ele>
        <time>2014-07-26T14:46:30Z</time>
      </trkpt>
      <trkpt lat="47.93848" lon="1.98969">
        <ele>134.24</ele>
        <time>2014-07-26T14:46:59Z</time>
      </trkpt>
      <trkpt lat="47.9384" lon="1.99094">
        <ele>130.88</ele>
        <time>2014-07-26T14:47:35Z</time>
      </trkpt>
      <trkpt lat="47.93691" lon="1.9906">
        <ele>162.6</ele>
        <time>2014-07-26T14:48:12Z</time>
      </trkpt>
      <trkpt lat="47.93505" lon="1.99017">
        <ele>155.39</ele>
        <time>2014-07-26T14:49:08Z</time>
      </trkpt>
      <trkpt lat="47.93509" lon="1.98943">
        <ele>144.34</ele>
        <time>2014-07-26T14:49:50Z</time>
      </trkpt>
      <trkpt lat="47.93475" lon="1.98794">
        <ele>147.7</ele>
        <time>2014-07-26T14:50:23Z</time>
      </trkpt>
      <trkpt lat="47.93348" lon="1.98656">
        <ele>142.89</ele>
        <time>2014-07-26T14:51:38Z</time>
      </trkpt>
      <trkpt lat="47.93312" lon="1.98756">
        <ele>141.93</ele>
        <time>2014-07-26T14:52:30Z</time>
      </trkpt>
      <trkpt lat="47.93218" lon="1.98822">
        <ele>140.49</ele>
        <time>2014-07-26T14:52:51Z</time>
      </trkpt>
      <trkpt lat="47.93228" lon="1.98956">
        <ele>140.49</ele>
        <time>2014-07-26T14:53:11Z</time>
      </trkpt>
      <trkpt lat="47.93297" lon="1.99052">
        <ele>141.45</ele>
        <time>2014-07-26T14:53:29Z</time>
      </trkpt>
      <trkpt lat="47.93341" lon="1.99166">
        <ele>141.93</ele>
        <time>2014-07-26T14:53:48Z</time>
      </trkpt>
    </trkseg>
  </trk>
</gpx>